createdAt,value
2018-06-24T00:02:36.624Z,17.00
2018-06-24T00:06:01.458Z,17.00
2018-06-24T00:09:26.406Z,16.90
2018-06-24T00:12:51.609Z,16.90
2018-06-24T00:16:16.554Z,16.80
2018-06-24T00:23:06.132Z,16.70
2018-06-24T00:26:31.030Z,16.60
2018-06-24T00:29:55.976Z,16.40
2018-06-24T00:33:21.097Z,16.20
2018-06-24T00:36:46.143Z,16.20
2018-06-24T00:40:10.922Z,16.00
2018-06-24T00:43:35.906Z,15.90
2018-06-24T00:47:00.664Z,15.80
2018-06-24T00:50:25.488Z,15.70
2018-06-24T00:53:50.240Z,15.60
2018-06-24T00:57:15.122Z,15.50
2018-06-24T01:00:39.976Z,15.50
2018-06-24T01:04:04.888Z,15.30
2018-06-24T01:07:29.656Z,15.30
2018-06-24T01:10:54.514Z,15.20
2018-06-24T01:14:19.230Z,15.20
2018-06-24T01:17:44.091Z,15.10
2018-06-24T01:21:08.919Z,15.10
2018-06-24T01:24:34.493Z,15.10
2018-06-24T01:27:59.907Z,15.00
2018-06-24T01:31:24.803Z,15.00
2018-06-24T01:34:49.549Z,14.90
2018-06-24T01:38:14.470Z,14.90
2018-06-24T01:41:39.235Z,14.80
2018-06-24T01:45:04.038Z,14.70
2018-06-24T01:48:28.957Z,14.70
2018-06-24T01:51:54.886Z,14.70
2018-06-24T01:55:19.925Z,14.70
2018-06-24T01:58:44.666Z,14.70
2018-06-24T02:02:09.536Z,14.70
2018-06-24T02:05:34.176Z,14.70
2018-06-24T02:08:58.851Z,14.50
2018-06-24T02:12:23.538Z,14.50
2018-06-24T02:15:48.562Z,14.50
2018-06-24T02:19:13.754Z,14.40
2018-06-24T02:22:38.497Z,14.40
2018-06-24T02:26:03.177Z,14.30
2018-06-24T02:29:27.907Z,14.30
2018-06-24T02:32:52.564Z,14.30
2018-06-24T02:36:17.260Z,14.20
2018-06-24T02:39:42.993Z,14.20
2018-06-24T02:43:07.738Z,14.10
2018-06-24T02:46:32.436Z,14.10
2018-06-24T02:49:57.089Z,14.00
2018-06-24T02:53:21.780Z,13.90
2018-06-24T02:56:46.612Z,13.90
2018-06-24T03:00:11.421Z,13.90
2018-06-24T03:03:36.224Z,13.90
2018-06-24T03:07:01.002Z,13.80
2018-06-24T03:10:25.722Z,13.60
2018-06-24T03:17:14.904Z,13.60
2018-06-24T03:20:39.602Z,13.60
2018-06-24T03:27:28.686Z,13.70
2018-06-24T03:30:53.454Z,13.70
2018-06-24T03:34:18.114Z,13.60
2018-06-24T03:37:42.791Z,13.60
2018-06-24T03:41:07.836Z,13.60
2018-06-24T03:44:32.543Z,13.60
2018-06-24T03:47:57.254Z,13.60
2018-06-24T03:54:46.573Z,13.50
2018-06-24T03:58:11.429Z,13.60
2018-06-24T04:01:36.190Z,13.60
2018-06-24T04:05:01.174Z,13.60
2018-06-24T04:08:26.152Z,13.60
2018-06-24T04:15:15.399Z,13.70
2018-06-24T04:18:43.229Z,13.70
2018-06-24T04:22:07.994Z,13.70
2018-06-24T04:25:32.729Z,13.70
2018-06-24T04:28:57.492Z,13.70
2018-06-24T04:32:22.241Z,13.80
2018-06-24T04:35:47.010Z,13.80
2018-06-24T04:39:12.027Z,13.80
2018-06-24T04:42:37.992Z,13.90
2018-06-24T04:49:27.305Z,14.00
2018-06-24T04:52:52.004Z,14.00
2018-06-24T04:56:16.729Z,14.10
2018-06-24T04:59:41.446Z,14.10
2018-06-24T05:03:06.450Z,14.10
2018-06-24T05:06:31.373Z,14.30
2018-06-24T05:09:56.800Z,14.30
2018-06-24T05:13:21.622Z,14.50
2018-06-24T05:16:46.549Z,14.30
2018-06-24T05:20:11.440Z,14.50
2018-06-24T05:23:36.428Z,14.60
2018-06-24T05:27:01.404Z,14.70
2018-06-24T05:30:26.102Z,14.80
2018-06-24T05:33:50.879Z,14.80
2018-06-24T05:37:15.772Z,15.00
2018-06-24T05:40:40.782Z,15.10
2018-06-24T05:44:06.027Z,15.20
2018-06-24T05:47:30.929Z,15.20
2018-06-24T05:54:20.047Z,15.40
2018-06-24T05:57:44.776Z,15.40
2018-06-24T06:01:09.548Z,15.40
2018-06-24T06:04:34.284Z,15.50
2018-06-24T06:07:58.926Z,15.60
2018-06-24T06:11:23.593Z,15.50
2018-06-24T06:14:48.584Z,15.80
2018-06-24T06:18:13.540Z,15.80
2018-06-24T06:21:38.454Z,15.60
2018-06-24T06:25:03.282Z,15.70
2018-06-24T06:28:28.148Z,15.70
2018-06-24T06:31:52.973Z,15.80
2018-06-24T06:35:17.733Z,15.90
2018-06-24T06:38:42.821Z,15.90
2018-06-24T06:42:07.790Z,16.10
2018-06-24T06:45:32.871Z,16.10
2018-06-24T06:48:57.707Z,16.50
2018-06-24T06:52:22.764Z,16.60
2018-06-24T06:55:47.697Z,16.40
2018-06-24T06:59:14.315Z,16.40
2018-06-24T07:02:40.055Z,16.40
2018-06-24T07:06:06.637Z,16.40
2018-06-24T07:09:31.986Z,16.70
2018-06-24T07:13:03.079Z,16.80
2018-06-24T07:16:29.720Z,17.00
2018-06-24T07:19:54.666Z,17.30
2018-06-24T07:23:19.560Z,17.50
2018-06-24T07:26:44.358Z,17.50
2018-06-24T07:30:09.808Z,17.60
2018-06-24T07:33:35.500Z,17.60
2018-06-24T07:37:00.540Z,17.60
2018-06-24T07:40:26.679Z,17.90
2018-06-24T07:43:51.582Z,17.90
2018-06-24T07:47:16.374Z,18.10
2018-06-24T07:50:41.968Z,18.30
2018-06-24T07:54:06.948Z,18.40
2018-06-24T07:57:31.978Z,18.60
2018-06-24T08:00:58.211Z,18.30
2018-06-24T08:04:24.451Z,18.30
2018-06-24T08:07:49.335Z,18.50
2018-06-24T08:11:14.096Z,18.30
2018-06-24T08:14:38.884Z,18.40
2018-06-24T08:18:04.584Z,18.30
2018-06-24T08:21:29.446Z,18.60
2018-06-24T08:24:54.296Z,18.80
2018-06-24T08:28:19.145Z,18.80
2018-06-24T08:31:44.204Z,19.00
2018-06-24T08:38:33.488Z,19.00
2018-06-24T08:41:58.460Z,19.20
2018-06-24T08:45:24.118Z,19.30
2018-06-24T08:48:48.946Z,19.40
2018-06-24T08:52:14.194Z,19.30
2018-06-24T08:55:39.011Z,19.40
2018-06-24T08:59:03.884Z,19.70
2018-06-24T09:02:28.920Z,19.80
2018-06-24T09:05:53.766Z,19.50
2018-06-24T09:09:18.552Z,19.60
2018-06-24T09:12:43.383Z,19.40
2018-06-24T09:16:08.408Z,19.90
2018-06-24T09:22:57.758Z,19.80
2018-06-24T09:26:22.717Z,19.60
2018-06-24T09:29:47.555Z,19.60
2018-06-24T09:33:12.369Z,20.00
2018-06-24T09:36:37.093Z,19.90
2018-06-24T09:40:01.867Z,19.90
2018-06-24T09:43:26.948Z,20.10
2018-06-24T09:46:51.881Z,20.50
2018-06-24T09:50:16.617Z,20.70
2018-06-24T09:53:41.385Z,21.10
2018-06-24T10:00:30.525Z,21.50
2018-06-24T10:03:55.797Z,21.50
2018-06-24T10:07:20.486Z,21.50
2018-06-24T10:10:45.161Z,21.30
2018-06-24T10:14:09.891Z,21.20
2018-06-24T10:17:36.001Z,20.70
2018-06-24T10:21:01.954Z,20.70
2018-06-24T10:24:26.862Z,20.90
2018-06-24T10:27:54.583Z,20.90
2018-06-24T10:31:19.677Z,21.20
2018-06-24T10:34:44.691Z,21.20
2018-06-24T10:38:09.481Z,20.90
2018-06-24T10:41:34.334Z,21.30
2018-06-24T10:44:59.081Z,21.00
2018-06-24T10:48:23.805Z,21.10
2018-06-24T10:51:48.538Z,20.80
2018-06-24T10:55:13.328Z,20.70
2018-06-24T10:58:37.986Z,21.00
2018-06-24T11:02:02.776Z,20.90
2018-06-24T11:05:27.725Z,21.10
2018-06-24T11:08:52.755Z,21.00
2018-06-24T11:15:42.145Z,21.40
2018-06-24T11:19:06.951Z,21.60
2018-06-24T11:22:31.821Z,22.00
2018-06-24T11:25:56.685Z,22.50
2018-06-24T11:29:24.520Z,22.60
2018-06-24T11:32:49.638Z,22.30
2018-06-24T11:36:14.420Z,22.30
2018-06-24T11:39:39.188Z,22.40
2018-06-24T11:43:04.023Z,22.90
2018-06-24T11:46:28.868Z,22.60
2018-06-24T11:49:53.742Z,22.60
2018-06-24T11:53:18.637Z,22.40
2018-06-24T11:56:43.395Z,22.50
2018-06-24T12:00:08.310Z,22.80
2018-06-24T12:06:57.568Z,22.50
2018-06-24T12:10:22.322Z,22.40
2018-06-24T12:13:47.101Z,22.10
2018-06-24T12:17:12.863Z,22.40
2018-06-24T12:20:37.825Z,22.50
2018-06-24T12:24:02.556Z,22.60
2018-06-24T12:30:53.195Z,22.40
2018-06-24T12:38:48.792Z,22.70
2018-06-24T12:42:13.497Z,22.90
2018-06-24T12:45:38.264Z,23.10
2018-06-24T12:49:03.089Z,22.70
2018-06-24T12:52:27.769Z,22.90
2018-06-24T12:55:52.476Z,22.90
2018-06-24T13:02:41.739Z,22.60
2018-06-24T13:06:06.515Z,22.40
2018-06-24T13:09:31.329Z,22.60
2018-06-24T13:12:56.038Z,22.60
2018-06-24T13:16:20.765Z,22.60
2018-06-24T13:19:45.642Z,22.60
2018-06-24T13:23:10.292Z,22.70
2018-06-24T13:29:59.362Z,22.80
2018-06-24T13:33:24.266Z,22.70
2018-06-24T13:36:50.074Z,22.90
2018-06-24T13:43:40.527Z,22.40
2018-06-24T13:47:05.326Z,22.30
2018-06-24T13:50:30.221Z,22.40
2018-06-24T13:53:55.021Z,22.50
2018-06-24T13:57:19.763Z,22.80
2018-06-24T14:00:44.587Z,22.80
2018-06-24T14:04:09.433Z,22.80
2018-06-24T14:07:34.218Z,22.80
2018-06-24T14:10:59.024Z,23.10
2018-06-24T14:14:23.762Z,23.00
2018-06-24T14:17:48.643Z,22.90
2018-06-24T14:21:13.454Z,23.00
2018-06-24T14:24:38.430Z,23.40
2018-06-24T14:28:03.351Z,23.10
2018-06-24T14:31:28.233Z,23.30
2018-06-24T14:34:53.576Z,23.60
2018-06-24T14:38:18.399Z,23.80
2018-06-24T14:41:43.114Z,23.60
2018-06-24T14:45:07.954Z,23.70
2018-06-24T14:48:32.649Z,23.90
2018-06-24T14:51:57.686Z,24.40
2018-06-24T14:55:22.557Z,24.60
2018-06-24T14:58:47.574Z,24.60
2018-06-24T15:02:12.547Z,24.20
2018-06-24T15:05:37.299Z,24.10
2018-06-24T15:09:02.014Z,24.70
2018-06-24T15:19:15.688Z,24.70
2018-06-24T15:22:40.627Z,24.80
2018-06-24T15:29:29.897Z,24.90
2018-06-24T15:32:54.979Z,24.80
2018-06-24T15:39:44.569Z,24.50
2018-06-24T15:43:09.596Z,24.40
2018-06-24T15:46:34.495Z,23.90
2018-06-24T15:49:59.313Z,23.60
2018-06-24T15:53:24.088Z,23.50
2018-06-24T16:00:13.254Z,23.40
2018-06-24T16:03:38.016Z,23.40
2018-06-24T16:07:02.823Z,23.30
2018-06-24T16:10:27.664Z,23.10
2018-06-24T16:13:52.350Z,23.20
2018-06-24T16:17:17.083Z,23.10
2018-06-24T16:20:41.853Z,23.00
2018-06-24T16:24:06.776Z,22.90
2018-06-24T16:27:31.580Z,22.90
2018-06-24T16:30:56.309Z,22.80
2018-06-24T16:34:21.160Z,22.70
2018-06-24T16:37:46.878Z,22.50
2018-06-24T16:41:11.809Z,22.50
2018-06-24T16:44:36.683Z,22.50
2018-06-24T16:48:01.468Z,22.40
2018-06-24T16:54:50.622Z,22.10
2018-06-24T16:58:15.427Z,22.00
2018-06-24T17:01:40.995Z,21.60
2018-06-24T17:05:05.768Z,21.50
2018-06-24T17:08:31.434Z,21.30
2018-06-24T17:11:56.437Z,21.40
2018-06-24T17:15:21.245Z,21.30
2018-06-24T17:18:46.543Z,21.20
2018-06-24T17:22:11.522Z,21.10
2018-06-24T17:25:37.246Z,21.00
2018-06-24T17:32:26.502Z,21.10
2018-06-24T17:35:51.148Z,21.10
2018-06-24T17:39:17.282Z,21.10
2018-06-24T17:42:42.316Z,21.10
2018-06-24T17:46:07.283Z,21.10
2018-06-24T17:49:32.075Z,21.10
2018-06-24T17:52:56.890Z,21.30
2018-06-24T17:56:21.938Z,21.60
2018-06-24T17:59:47.673Z,21.50
2018-06-24T18:03:12.463Z,21.50
2018-06-24T18:06:37.330Z,21.30
2018-06-24T18:10:02.293Z,21.30
2018-06-24T18:13:27.063Z,21.10
2018-06-24T18:16:51.912Z,20.90
2018-06-24T18:20:16.796Z,20.80
2018-06-24T18:23:42.008Z,20.80
2018-06-24T18:30:32.397Z,20.80
2018-06-24T18:33:57.438Z,20.70
2018-06-24T18:37:22.432Z,20.60
2018-06-24T18:40:47.792Z,20.60
2018-06-24T18:44:13.705Z,20.50
2018-06-24T18:47:39.527Z,20.50
2018-06-24T18:54:29.061Z,20.50
2018-06-24T19:01:20.325Z,20.50
2018-06-24T19:08:09.635Z,20.40
2018-06-24T19:14:59.038Z,20.30
2018-06-24T19:21:49.797Z,20.30
2018-06-24T19:25:15.946Z,20.20
2018-06-24T19:28:40.870Z,20.20
2018-06-24T19:32:06.034Z,20.10
2018-06-24T19:35:30.928Z,20.00
2018-06-24T19:38:55.734Z,20.00
2018-06-24T19:42:21.165Z,20.00
2018-06-24T19:45:47.423Z,20.00
2018-06-24T19:49:13.249Z,19.80
2018-06-24T19:52:38.010Z,19.80
2018-06-24T19:56:03.349Z,19.80
2018-06-24T20:06:19.885Z,19.70
2018-06-24T20:09:44.895Z,19.70
2018-06-24T20:13:10.889Z,19.70
2018-06-24T20:16:35.930Z,19.70
2018-06-24T20:20:00.720Z,19.60
2018-06-24T20:23:25.699Z,19.70
2018-06-24T20:26:50.512Z,19.70
2018-06-24T20:30:15.346Z,19.60
2018-06-24T20:33:40.106Z,19.60
2018-06-24T20:37:04.986Z,19.60
2018-06-24T20:40:29.978Z,19.60
2018-06-24T20:43:54.844Z,19.60
2018-06-24T20:47:19.563Z,19.60
2018-06-24T20:50:44.300Z,19.50
2018-06-24T20:54:08.961Z,19.50
2018-06-24T20:57:33.729Z,19.50
2018-06-24T21:00:58.468Z,19.50
2018-06-24T21:04:25.282Z,19.40
2018-06-24T21:07:50.008Z,19.40
2018-06-24T21:11:14.950Z,19.40
2018-06-24T21:14:39.653Z,19.30
2018-06-24T21:18:04.297Z,19.30
2018-06-24T21:21:29.017Z,19.30
2018-06-24T21:24:53.680Z,19.20
2018-06-24T21:28:18.390Z,19.10
2018-06-24T21:31:43.060Z,19.10
2018-06-24T21:35:07.756Z,19.00
2018-06-24T21:41:56.993Z,18.90
2018-06-24T21:45:21.651Z,18.80
2018-06-24T21:48:46.328Z,18.80
2018-06-24T21:52:10.993Z,18.80
2018-06-24T21:55:35.772Z,18.70
2018-06-24T21:59:00.438Z,18.70
2018-06-24T22:02:25.206Z,18.60
2018-06-24T22:06:03.017Z,18.60
2018-06-24T22:09:27.886Z,18.60
2018-06-24T22:12:52.544Z,18.50
2018-06-24T22:16:17.339Z,18.50
2018-06-24T22:19:41.994Z,18.40
2018-06-24T22:23:06.687Z,18.40
2018-06-24T22:26:32.376Z,18.40
2018-06-24T22:29:57.974Z,18.40
2018-06-24T22:33:22.642Z,18.40
2018-06-24T22:36:47.297Z,18.40
2018-06-24T22:40:11.956Z,18.40
2018-06-24T22:43:36.660Z,18.30
2018-06-24T22:47:01.331Z,18.20
2018-06-24T22:50:25.948Z,18.10
2018-06-24T22:53:50.702Z,18.10
2018-06-24T22:57:15.347Z,18.00
2018-06-24T23:00:40.324Z,17.90
2018-06-24T23:04:05.102Z,18.00
2018-06-24T23:07:29.757Z,18.00
2018-06-24T23:10:54.435Z,18.00
2018-06-24T23:14:19.082Z,18.00
2018-06-24T23:17:43.755Z,18.00
2018-06-24T23:21:08.373Z,17.90
2018-06-24T23:24:33.069Z,17.90
2018-06-24T23:27:57.724Z,17.90
2018-06-24T23:31:22.418Z,17.90
2018-06-24T23:34:47.128Z,17.80
2018-06-24T23:38:11.835Z,17.80
2018-06-24T23:41:36.628Z,17.70
2018-06-24T23:45:01.317Z,17.80
2018-06-24T23:48:26.032Z,17.70
2018-06-24T23:51:50.784Z,17.70
2018-06-24T23:55:15.434Z,17.70
